createdAt,value
2023-11-25T00:01:07.356Z,-0.30
2023-11-25T00:03:35.706Z,-0.40
2023-11-25T00:06:04.676Z,-0.30
2023-11-25T00:08:34.505Z,-0.40
2023-11-25T00:11:02.692Z,-0.50
2023-11-25T00:13:31.832Z,-0.50
2023-11-25T00:15:59.881Z,-0.50
2023-11-25T00:18:28.443Z,-0.60
2023-11-25T00:20:56.542Z,-0.60
2023-11-25T00:23:24.641Z,-0.60
2023-11-25T00:25:55.167Z,-0.60
2023-11-25T00:28:23.556Z,-0.60
2023-11-25T00:30:51.610Z,-0.60
2023-11-25T00:33:19.673Z,-0.60
2023-11-25T00:35:49.348Z,-0.60
2023-11-25T00:38:17.497Z,-0.70
2023-11-25T00:40:45.680Z,-0.70
2023-11-25T00:43:15.837Z,-0.80
2023-11-25T00:45:44.398Z,-0.80
2023-11-25T00:48:13.825Z,-0.90
2023-11-25T00:50:42.015Z,-0.90
2023-11-25T00:53:10.161Z,-0.90
2023-11-25T00:55:38.214Z,-1.00
2023-11-25T00:58:07.404Z,-0.90
2023-11-25T01:00:37.046Z,-1.00
2023-11-25T01:03:05.633Z,-1.00
2023-11-25T01:05:33.989Z,-1.00
2023-11-25T01:08:02.044Z,-1.00
2023-11-25T01:10:30.277Z,-1.00
2023-11-25T01:12:58.365Z,-1.00
2023-11-25T01:15:26.529Z,-1.00
2023-11-25T01:17:56.127Z,-1.00
2023-11-25T01:20:25.127Z,-1.00
2023-11-25T01:22:53.264Z,-1.00
2023-11-25T01:25:22.332Z,-1.00
2023-11-25T01:27:55.221Z,-0.90
2023-11-25T01:30:23.422Z,-0.90
2023-11-25T01:32:51.601Z,-0.90
2023-11-25T01:35:21.139Z,-0.90
2023-11-25T01:37:49.572Z,-0.90
2023-11-25T01:40:17.886Z,-0.90
2023-11-25T01:42:46.132Z,-0.80
2023-11-25T01:45:14.269Z,-0.80
2023-11-25T01:47:43.255Z,-0.80
2023-11-25T01:50:12.758Z,-0.80
2023-11-25T01:52:44.399Z,-0.80
2023-11-25T01:55:13.165Z,-0.80
2023-11-25T01:57:41.371Z,-0.80
2023-11-25T02:00:11.042Z,-0.70
2023-11-25T02:02:44.436Z,-0.70
2023-11-25T02:05:13.580Z,-0.70
2023-11-25T02:07:43.579Z,-0.80
2023-11-25T02:10:12.789Z,-0.80
2023-11-25T02:12:41.230Z,-0.70
2023-11-25T02:15:12.995Z,-0.70
2023-11-25T02:17:43.769Z,-0.70
2023-11-25T02:20:15.007Z,-0.80
2023-11-25T02:22:59.361Z,-0.80
2023-11-25T02:25:29.040Z,-0.80
2023-11-25T02:27:57.362Z,-0.70
2023-11-25T02:30:25.858Z,-0.80
2023-11-25T02:32:54.569Z,-0.80
2023-11-25T02:35:23.070Z,-0.70
2023-11-25T02:37:52.652Z,-0.80
2023-11-25T02:40:20.932Z,-0.70
2023-11-25T02:42:49.615Z,-0.70
2023-11-25T02:45:20.333Z,-0.70
2023-11-25T02:47:49.940Z,-0.80
2023-11-25T02:50:19.046Z,-0.80
2023-11-25T02:52:48.193Z,-0.80
2023-11-25T02:55:17.755Z,-0.80
2023-11-25T02:57:48.219Z,-0.70
2023-11-25T03:00:29.488Z,-0.70
2023-11-25T03:03:09.403Z,-0.70
2023-11-25T03:05:39.249Z,-0.80
2023-11-25T03:08:12.136Z,-0.70
2023-11-25T03:10:43.877Z,-0.70
2023-11-25T03:13:12.567Z,-0.70
2023-11-25T03:15:41.631Z,-0.70
2023-11-25T03:18:11.847Z,-0.70
2023-11-25T03:20:41.113Z,-0.70
2023-11-25T03:23:09.467Z,-0.70
2023-11-25T03:25:40.124Z,-0.80
2023-11-25T03:28:12.321Z,-0.70
2023-11-25T03:30:42.102Z,-0.70
2023-11-25T03:33:10.968Z,-0.80
2023-11-25T03:35:39.382Z,-0.80
2023-11-25T03:38:08.121Z,-0.80
2023-11-25T03:40:36.313Z,-0.80
2023-11-25T03:43:04.394Z,-0.80
2023-11-25T03:45:33.880Z,-0.80
2023-11-25T03:48:02.089Z,-0.80
2023-11-25T03:50:30.534Z,-0.80
2023-11-25T03:52:58.907Z,-0.80
2023-11-25T03:55:27.053Z,-0.70
2023-11-25T03:57:55.292Z,-0.70
2023-11-25T04:00:24.044Z,-0.70
2023-11-25T04:02:53.732Z,-0.70
2023-11-25T04:05:24.046Z,-0.70
2023-11-25T04:07:52.464Z,-0.70
2023-11-25T04:10:19.602Z,-0.70
2023-11-25T04:12:49.179Z,-0.70
2023-11-25T04:15:21.033Z,-0.70
2023-11-25T04:17:49.806Z,-0.70
2023-11-25T04:20:25.893Z,-0.70
2023-11-25T04:22:54.622Z,-0.70
2023-11-25T04:25:24.273Z,-0.70
2023-11-25T04:27:52.661Z,-0.70
2023-11-25T04:30:21.237Z,-0.70
2023-11-25T04:32:50.348Z,-0.70
2023-11-25T04:35:20.417Z,-0.70
2023-11-25T04:37:48.870Z,-0.70
2023-11-25T04:40:19.952Z,-0.70
2023-11-25T04:42:48.147Z,-0.70
2023-11-25T04:45:18.598Z,-0.70
2023-11-25T04:47:48.813Z,-0.70
2023-11-25T04:50:19.345Z,-0.70
2023-11-25T04:52:47.449Z,-0.70
2023-11-25T04:55:16.610Z,-0.70
2023-11-25T04:57:45.848Z,-0.70
2023-11-25T05:00:16.216Z,-0.80
2023-11-25T05:02:45.044Z,-0.70
2023-11-25T05:05:14.445Z,-0.80
2023-11-25T05:07:44.058Z,-0.80
2023-11-25T05:10:12.733Z,-0.80
2023-11-25T05:12:42.783Z,-0.80
2023-11-25T05:15:12.049Z,-0.70
2023-11-25T05:17:40.699Z,-0.70
2023-11-25T05:20:14.846Z,-0.80
2023-11-25T05:22:44.415Z,-0.80
2023-11-25T05:25:14.414Z,-0.80
2023-11-25T05:27:42.497Z,-0.80
2023-11-25T05:30:14.121Z,-0.80
2023-11-25T05:32:43.975Z,-0.80
2023-11-25T05:35:14.195Z,-0.80
2023-11-25T05:37:45.310Z,-0.80
2023-11-25T05:40:16.699Z,-0.80
2023-11-25T05:42:49.726Z,-0.80
2023-11-25T05:45:21.576Z,-0.80
2023-11-25T05:47:50.050Z,-0.80
2023-11-25T05:50:21.421Z,-0.80
2023-11-25T05:52:51.811Z,-0.90
2023-11-25T05:55:21.963Z,-0.80
2023-11-25T05:57:52.497Z,-0.80
2023-11-25T06:00:22.700Z,-0.90
2023-11-25T06:02:51.300Z,-0.90
2023-11-25T06:05:19.513Z,-0.90
2023-11-25T06:07:47.806Z,-0.90
2023-11-25T06:10:19.037Z,-1.00
2023-11-25T06:12:47.126Z,-1.10
2023-11-25T06:15:17.107Z,-1.10
2023-11-25T06:17:46.767Z,-1.10
2023-11-25T06:20:15.793Z,-1.20
2023-11-25T06:22:43.833Z,-1.20
2023-11-25T06:25:11.921Z,-1.20
2023-11-25T06:27:43.273Z,-1.20
2023-11-25T06:30:13.589Z,-1.30
2023-11-25T06:32:41.623Z,-1.30
2023-11-25T06:35:11.113Z,-1.30
2023-11-25T06:37:41.052Z,-1.30
2023-11-25T06:40:13.848Z,-1.40
2023-11-25T06:42:44.230Z,-1.40
2023-11-25T06:45:15.119Z,-1.40
2023-11-25T06:47:44.509Z,-1.40
2023-11-25T06:50:13.528Z,-1.40
2023-11-25T06:52:41.693Z,-1.40
2023-11-25T06:55:10.882Z,-1.40
2023-11-25T06:57:40.253Z,-1.40
2023-11-25T07:00:12.200Z,-1.40
2023-11-25T07:02:41.041Z,-1.40
2023-11-25T07:05:10.031Z,-1.40
2023-11-25T07:07:38.498Z,-1.40
2023-11-25T07:10:11.222Z,-1.40
2023-11-25T07:12:39.769Z,-1.40
2023-11-25T07:15:10.558Z,-1.40
2023-11-25T07:17:39.106Z,-1.40
2023-11-25T07:20:13.597Z,-1.40
2023-11-25T07:22:42.328Z,-1.40
2023-11-25T07:25:13.247Z,-1.30
2023-11-25T07:27:42.706Z,-1.20
2023-11-25T07:30:13.500Z,-1.10
2023-11-25T07:32:41.757Z,-1.10
2023-11-25T07:35:10.197Z,-1.10
2023-11-25T07:37:39.617Z,-1.00
2023-11-25T07:40:11.345Z,-1.00
2023-11-25T07:42:39.687Z,-1.00
2023-11-25T07:45:11.157Z,-1.10
2023-11-25T07:47:41.525Z,-1.00
2023-11-25T07:50:10.684Z,-1.00
2023-11-25T07:52:39.498Z,-0.90
2023-11-25T07:55:09.976Z,-0.80
2023-11-25T07:57:38.397Z,-0.80
2023-11-25T08:00:08.419Z,-0.80
2023-11-25T08:02:41.892Z,-0.80
2023-11-25T08:05:10.938Z,-0.80
2023-11-25T08:07:39.157Z,-0.70
2023-11-25T08:10:08.981Z,-0.70
2023-11-25T08:12:37.097Z,-0.50
2023-11-25T08:15:06.342Z,-0.60
2023-11-25T08:17:34.380Z,-0.60
2023-11-25T08:20:04.523Z,-0.60
2023-11-25T08:22:32.825Z,-0.70
2023-11-25T08:25:02.768Z,-0.60
2023-11-25T08:27:31.779Z,-0.40
2023-11-25T08:29:59.885Z,-0.40
2023-11-25T08:32:28.203Z,-0.20
2023-11-25T08:34:56.409Z,-0.10
2023-11-25T08:37:28.620Z,-0.10
2023-11-25T08:39:56.798Z,-0.10
2023-11-25T08:42:27.317Z,-0.10
2023-11-25T08:44:55.378Z,0.00
2023-11-25T08:47:23.564Z,-0.10
2023-11-25T08:49:52.140Z,-0.10
2023-11-25T08:52:20.409Z,-0.10
2023-11-25T08:54:50.764Z,0.00
2023-11-25T08:57:19.513Z,0.10
2023-11-25T08:59:47.784Z,0.10
2023-11-25T09:02:23.496Z,0.10
2023-11-25T09:05:03.259Z,0.20
2023-11-25T09:07:36.113Z,0.20
2023-11-25T09:10:08.586Z,0.20
2023-11-25T09:12:37.782Z,0.20
2023-11-25T09:15:09.197Z,0.30
2023-11-25T09:17:39.973Z,0.40
2023-11-25T09:20:11.244Z,0.80
2023-11-25T09:22:40.432Z,1.00
2023-11-25T09:25:13.173Z,1.50
2023-11-25T09:27:41.851Z,2.40
2023-11-25T09:30:13.202Z,2.30
2023-11-25T09:32:42.089Z,2.00
2023-11-25T09:35:12.209Z,1.70
2023-11-25T09:37:40.541Z,1.50
2023-11-25T09:40:16.320Z,1.30
2023-11-25T09:42:45.452Z,1.30
2023-11-25T09:45:14.302Z,1.30
2023-11-25T09:47:44.637Z,1.40
2023-11-25T09:50:14.349Z,1.70
2023-11-25T09:52:51.315Z,2.00
2023-11-25T09:55:23.911Z,2.30
2023-11-25T09:57:58.066Z,2.20
2023-11-25T10:00:28.355Z,2.20
2023-11-25T10:02:59.672Z,2.30
2023-11-25T10:05:28.472Z,2.50
2023-11-25T10:07:58.250Z,2.40
2023-11-25T10:10:30.255Z,2.50
2023-11-25T10:12:59.088Z,2.40
2023-11-25T10:15:27.119Z,2.20
2023-11-25T10:17:56.582Z,2.00
2023-11-25T10:20:25.225Z,2.00
2023-11-25T10:22:57.704Z,2.00
2023-11-25T10:25:29.796Z,2.00
2023-11-25T10:27:58.132Z,1.90
2023-11-25T10:30:26.750Z,1.90
2023-11-25T10:32:58.215Z,2.00
2023-11-25T10:35:26.813Z,2.00
2023-11-25T10:37:56.171Z,2.00
2023-11-25T10:40:26.413Z,2.00
2023-11-25T10:42:56.293Z,1.90
2023-11-25T10:45:28.900Z,1.80
2023-11-25T10:47:59.423Z,1.80
2023-11-25T10:50:27.723Z,1.70
2023-11-25T10:52:59.575Z,1.70
2023-11-25T10:55:29.797Z,1.80
2023-11-25T10:58:02.163Z,1.60
2023-11-25T11:00:32.139Z,1.40
2023-11-25T11:03:06.844Z,1.10
2023-11-25T11:05:47.212Z,1.00
2023-11-25T11:08:22.543Z,0.90
2023-11-25T11:11:01.299Z,0.70
2023-11-25T11:13:35.425Z,0.50
2023-11-25T11:16:08.921Z,0.30
2023-11-25T11:18:42.749Z,0.20
2023-11-25T11:21:12.781Z,0.20
2023-11-25T11:23:41.473Z,0.30
2023-11-25T11:26:22.216Z,0.30
2023-11-25T11:29:05.485Z,0.30
2023-11-25T11:32:00.594Z,0.20
2023-11-25T11:34:30.697Z,0.20
2023-11-25T11:36:59.722Z,0.20
2023-11-25T11:39:34.380Z,0.20
2023-11-25T11:42:27.723Z,0.20
2023-11-25T11:45:23.233Z,0.20
2023-11-25T11:47:54.196Z,0.20
2023-11-25T11:50:24.207Z,0.10
2023-11-25T11:53:14.944Z,0.00
2023-11-25T11:55:54.687Z,0.00
2023-11-25T11:58:23.680Z,0.00
2023-11-25T12:00:56.445Z,0.10
2023-11-25T12:03:24.916Z,0.20
2023-11-25T12:05:53.609Z,0.20
2023-11-25T12:08:22.849Z,0.20
2023-11-25T12:10:52.046Z,0.30
2023-11-25T12:13:30.305Z,0.40
2023-11-25T12:16:01.759Z,0.40
2023-11-25T12:18:31.165Z,0.40
2023-11-25T12:21:02.306Z,0.40
2023-11-25T12:23:41.800Z,0.40
2023-11-25T12:26:22.299Z,0.40
2023-11-25T12:28:50.629Z,0.30
2023-11-25T12:31:20.420Z,0.30
2023-11-25T12:33:49.526Z,0.30
2023-11-25T12:36:18.308Z,0.40
2023-11-25T12:38:46.435Z,0.30
2023-11-25T12:41:16.425Z,0.40
2023-11-25T12:44:09.226Z,0.50
2023-11-25T12:46:39.394Z,0.60
2023-11-25T12:49:19.123Z,0.60
2023-11-25T12:51:47.170Z,0.60
2023-11-25T12:54:15.440Z,0.50
2023-11-25T12:56:43.847Z,0.50
2023-11-25T12:59:13.608Z,0.50
2023-11-25T13:01:44.436Z,0.50
2023-11-25T13:04:14.927Z,0.50
2023-11-25T13:06:49.864Z,0.50
2023-11-25T13:09:21.070Z,0.50
2023-11-25T13:11:49.429Z,0.50
2023-11-25T13:14:18.308Z,0.40
2023-11-25T13:16:48.023Z,0.40
2023-11-25T13:19:16.622Z,0.40
2023-11-25T13:21:45.056Z,0.40
2023-11-25T13:24:13.073Z,0.50
2023-11-25T13:26:41.179Z,0.50
2023-11-25T13:29:09.475Z,0.50
2023-11-25T13:36:58.589Z,0.60
2023-11-25T13:39:29.178Z,0.60
2023-11-25T13:41:57.414Z,0.70
2023-11-25T13:44:25.690Z,0.80
2023-11-25T13:46:54.127Z,0.80
2023-11-25T13:49:22.944Z,0.80
2023-11-25T13:51:50.949Z,0.80
2023-11-25T13:54:19.384Z,0.70
2023-11-25T13:56:48.842Z,0.70
2023-11-25T13:59:16.921Z,0.70
2023-11-25T14:01:45.375Z,0.70
2023-11-25T14:04:13.513Z,0.70
2023-11-25T14:06:41.658Z,0.70
2023-11-25T14:09:12.451Z,0.70
2023-11-25T14:11:41.051Z,0.70
2023-11-25T14:14:11.314Z,0.60
2023-11-25T14:16:39.939Z,0.60
2023-11-25T14:19:08.291Z,0.60
2023-11-25T14:21:36.470Z,0.60
2023-11-25T14:24:05.643Z,0.60
2023-11-25T14:26:35.268Z,0.70
2023-11-25T14:29:03.425Z,0.70
2023-11-25T14:31:33.560Z,0.70
2023-11-25T14:34:01.757Z,0.60
2023-11-25T14:36:31.479Z,0.60
2023-11-25T14:38:59.768Z,0.50
2023-11-25T14:41:28.232Z,0.50
2023-11-25T14:43:56.404Z,0.50
2023-11-25T14:46:24.449Z,0.60
2023-11-25T14:48:54.093Z,0.50
2023-11-25T14:51:22.231Z,0.50
2023-11-25T14:53:51.096Z,0.50
2023-11-25T14:56:19.178Z,0.40
2023-11-25T14:58:47.717Z,0.40
2023-11-25T15:01:16.307Z,0.50
2023-11-25T15:03:44.738Z,0.40
2023-11-25T15:06:14.481Z,0.40
2023-11-25T15:08:42.552Z,0.40
2023-11-25T15:11:10.890Z,0.40
2023-11-25T15:13:38.983Z,0.40
2023-11-25T15:16:07.366Z,0.40
2023-11-25T15:18:35.652Z,0.40
2023-11-25T15:21:05.209Z,0.40
2023-11-25T15:23:36.359Z,0.40
2023-11-25T15:26:07.637Z,0.40
2023-11-25T15:28:35.951Z,0.40
2023-11-25T15:31:04.210Z,0.40
2023-11-25T15:33:32.485Z,0.40
2023-11-25T15:36:00.611Z,0.40
2023-11-25T15:38:28.856Z,0.40
2023-11-25T15:40:58.439Z,0.40
2023-11-25T15:43:26.822Z,0.40
2023-11-25T15:45:54.943Z,0.40
2023-11-25T15:48:23.165Z,0.30
2023-11-25T15:50:51.547Z,0.30
2023-11-25T15:53:20.024Z,0.40
2023-11-25T15:55:48.376Z,0.40
2023-11-25T15:58:17.963Z,0.40
2023-11-25T16:00:47.472Z,0.40
2023-11-25T16:03:15.817Z,0.40
2023-11-25T16:05:43.978Z,0.40
2023-11-25T16:08:12.262Z,0.40
2023-11-25T16:10:40.540Z,0.40
2023-11-25T16:13:08.661Z,0.40
2023-11-25T16:15:38.196Z,0.40
2023-11-25T16:18:08.950Z,0.40
2023-11-25T16:20:41.346Z,0.40
2023-11-25T16:23:09.615Z,0.40
2023-11-25T16:25:38.156Z,0.40
2023-11-25T16:28:07.929Z,0.40
2023-11-25T16:30:37.454Z,0.40
2023-11-25T16:33:08.017Z,0.40
2023-11-25T16:35:37.969Z,0.50
2023-11-25T16:38:06.343Z,0.40
2023-11-25T16:40:34.525Z,0.40
2023-11-25T16:43:04.477Z,0.40
2023-11-25T16:45:42.153Z,0.40
2023-11-25T16:48:10.434Z,0.40
2023-11-25T16:50:40.936Z,0.40
2023-11-25T16:53:10.339Z,0.50
2023-11-25T16:55:38.443Z,0.50
2023-11-25T16:58:06.612Z,0.50
2023-11-25T17:00:35.088Z,0.40
2023-11-25T17:03:05.383Z,0.40
2023-11-25T17:05:33.619Z,0.50
2023-11-25T17:08:01.938Z,0.40
2023-11-25T17:10:31.958Z,0.40
2023-11-25T17:13:00.224Z,0.40
2023-11-25T17:15:28.309Z,0.40
2023-11-25T17:17:56.443Z,0.30
2023-11-25T17:20:26.045Z,0.30
2023-11-25T17:22:54.962Z,0.30
2023-11-25T17:25:23.926Z,0.30
2023-11-25T17:27:52.012Z,0.30
2023-11-25T17:30:20.212Z,0.40
2023-11-25T17:32:48.323Z,0.30
2023-11-25T17:35:16.531Z,0.30
2023-11-25T17:37:45.991Z,0.30
2023-11-25T17:40:15.029Z,0.20
2023-11-25T17:42:44.666Z,0.20
2023-11-25T17:45:16.972Z,0.30
2023-11-25T17:47:45.824Z,0.20
2023-11-25T17:50:14.256Z,0.30
2023-11-25T17:52:42.631Z,0.30
2023-11-25T17:55:12.255Z,0.30
2023-11-25T17:57:40.385Z,0.30
2023-11-25T18:00:11.515Z,0.30
2023-11-25T18:02:39.848Z,0.20
2023-11-25T18:05:11.153Z,0.20
2023-11-25T18:07:58.421Z,0.30
2023-11-25T18:10:29.022Z,0.30
2023-11-25T18:12:57.395Z,0.20
2023-11-25T18:15:25.429Z,0.20
2023-11-25T18:17:53.836Z,0.20
2023-11-25T18:20:22.164Z,0.20
2023-11-25T18:22:51.963Z,0.30
2023-11-25T18:25:20.068Z,0.20
2023-11-25T18:27:50.634Z,0.10
2023-11-25T18:30:19.035Z,0.10
2023-11-25T18:32:47.191Z,0.00
2023-11-25T18:35:15.836Z,0.00
2023-11-25T18:37:44.089Z,-0.10
2023-11-25T18:40:13.538Z,-0.10
2023-11-25T18:42:42.347Z,-0.10
2023-11-25T18:45:13.025Z,-0.10
2023-11-25T18:47:41.925Z,-0.10
2023-11-25T18:50:10.732Z,-0.10
2023-11-25T18:52:40.077Z,-0.10
2023-11-25T18:55:08.944Z,0.00
2023-11-25T18:57:36.934Z,-0.10
2023-11-25T19:00:07.432Z,-0.10
2023-11-25T19:02:38.855Z,-0.10
2023-11-25T19:05:09.263Z,-0.10
2023-11-25T19:07:37.588Z,0.00
2023-11-25T19:10:07.787Z,-0.10
2023-11-25T19:12:36.386Z,-0.10
2023-11-25T19:15:05.169Z,-0.10
2023-11-25T19:17:33.384Z,-0.10
2023-11-25T19:20:03.188Z,0.00
2023-11-25T19:22:31.308Z,0.00
2023-11-25T19:24:59.382Z,0.00
2023-11-25T19:27:27.467Z,-0.10
2023-11-25T19:29:55.537Z,-0.10
2023-11-25T19:32:23.942Z,0.00
2023-11-25T19:34:52.081Z,0.00
2023-11-25T19:37:21.842Z,0.00
2023-11-25T19:39:49.892Z,0.00
2023-11-25T19:42:18.966Z,0.00
2023-11-25T19:44:47.082Z,0.00
2023-11-25T19:47:15.202Z,-0.10
2023-11-25T19:49:43.358Z,-0.10
2023-11-25T19:52:11.455Z,-0.10
2023-11-25T19:54:40.928Z,-0.10
2023-11-25T19:57:10.565Z,-0.10
2023-11-25T19:59:38.623Z,-0.10
2023-11-25T20:02:07.211Z,-0.10
2023-11-25T20:04:37.209Z,-0.20
2023-11-25T20:07:05.750Z,-0.20
2023-11-25T20:09:33.933Z,-0.20
2023-11-25T20:12:03.680Z,-0.30
2023-11-25T20:14:32.277Z,-0.20
2023-11-25T20:17:00.526Z,-0.20
2023-11-25T20:19:29.129Z,-0.20
2023-11-25T20:21:57.682Z,-0.30
2023-11-25T20:24:26.001Z,-0.30
2023-11-25T20:26:56.515Z,-0.30
2023-11-25T20:29:26.021Z,-0.20
2023-11-25T20:31:55.046Z,-0.20
2023-11-25T20:34:25.226Z,-0.20
2023-11-25T20:36:53.363Z,-0.20
2023-11-25T20:39:21.599Z,-0.20
2023-11-25T20:41:50.223Z,-0.20
2023-11-25T20:44:18.795Z,-0.20
2023-11-25T20:46:49.816Z,-0.20
2023-11-25T20:49:18.068Z,-0.20
2023-11-25T20:51:46.720Z,-0.10
2023-11-25T20:54:15.041Z,-0.10
2023-11-25T20:56:43.370Z,-0.10
2023-11-25T20:59:11.831Z,-0.10
2023-11-25T21:01:40.267Z,-0.10
2023-11-25T21:04:10.429Z,-0.10
2023-11-25T21:06:39.892Z,-0.10
2023-11-25T21:09:09.971Z,-0.20
2023-11-25T21:11:39.231Z,-0.10
2023-11-25T21:14:11.508Z,-0.10
2023-11-25T21:16:39.725Z,-0.20
2023-11-25T21:19:09.336Z,-0.20
2023-11-25T21:21:37.442Z,-0.20
2023-11-25T21:24:06.149Z,-0.30
2023-11-25T21:26:34.368Z,-0.30
2023-11-25T21:29:03.757Z,-0.30
2023-11-25T21:31:32.025Z,-0.40
2023-11-25T21:34:00.613Z,-0.30
2023-11-25T21:36:32.803Z,-0.30
2023-11-25T21:39:01.178Z,-0.30
2023-11-25T21:41:29.338Z,-0.30
2023-11-25T21:43:57.476Z,-0.40
2023-11-25T21:46:26.384Z,-0.40
2023-11-25T21:48:54.611Z,-0.40
2023-11-25T21:51:22.817Z,-0.40
2023-11-25T21:53:52.587Z,-0.40
2023-11-25T21:56:21.541Z,-0.40
2023-11-25T21:58:49.850Z,-0.50
2023-11-25T22:01:18.115Z,-0.40
2023-11-25T22:03:46.373Z,-0.50
2023-11-25T22:06:24.188Z,-0.60
2023-11-25T22:08:53.792Z,-0.60
2023-11-25T22:11:24.414Z,-0.60
2023-11-25T22:13:52.961Z,-0.70
2023-11-25T22:16:21.408Z,-0.70
2023-11-25T22:18:50.262Z,-0.70
2023-11-25T22:21:21.505Z,-0.60
2023-11-25T22:23:51.310Z,-0.60
2023-11-25T22:26:27.264Z,-0.60
2023-11-25T22:28:55.558Z,-0.70
2023-11-25T22:31:23.727Z,-0.60
2023-11-25T22:33:52.657Z,-0.70
2023-11-25T22:36:22.134Z,-0.70
2023-11-25T22:38:50.346Z,-0.60
2023-11-25T22:41:19.976Z,-0.60
2023-11-25T22:43:50.660Z,-0.60
2023-11-25T22:46:20.421Z,-0.60
2023-11-25T22:48:49.179Z,-0.60
2023-11-25T22:51:18.093Z,-0.60
2023-11-25T22:53:47.206Z,-0.50
2023-11-25T22:56:15.848Z,-0.50
2023-11-25T22:58:47.066Z,-0.50
2023-11-25T23:01:15.300Z,-0.50
2023-11-25T23:03:45.302Z,-0.50
2023-11-25T23:06:13.965Z,-0.50
2023-11-25T23:08:45.790Z,-0.50
2023-11-25T23:11:15.546Z,-0.50
2023-11-25T23:13:48.584Z,-0.50
2023-11-25T23:16:17.870Z,-0.40
2023-11-25T23:18:47.099Z,-0.50
2023-11-25T23:21:15.334Z,-0.50
2023-11-25T23:23:53.328Z,-0.60
2023-11-25T23:26:21.522Z,-0.70
2023-11-25T23:28:51.159Z,-0.70
2023-11-25T23:31:19.422Z,-0.60
2023-11-25T23:33:47.597Z,-0.70
2023-11-25T23:36:15.822Z,-0.70
2023-11-25T23:38:43.927Z,-0.70
2023-11-25T23:41:12.043Z,-0.80
2023-11-25T23:43:40.082Z,-0.90
2023-11-25T23:46:09.739Z,-0.90
2023-11-25T23:48:37.995Z,-0.90
2023-11-25T23:51:07.757Z,-0.90
2023-11-25T23:53:36.022Z,-0.90
2023-11-25T23:56:05.466Z,-1.00
2023-11-25T23:58:33.643Z,-1.00
